Manbij, Syria
Current Conditions -  °F | °C
As of 4:50 PM on Wednesday 22 Oct 2014 (Local Time) from LTAJ Reporting Station
Broken Clouds Broken Clouds  
Wind Chill: 64°   Ceiling: 10000
Heat Index: 64°   Visibility: 6mi
Dew Point: 43°   Wind: 5mph
Humidity: 45%   Direction: 90°E
Pressure: 30.12"   Gusts: NA
Location:  36.54°N, 37.96°E
Report Text: LTAJ 221350Z 09004KT 9999 SCT040 BKN100 18/06 Q1020 NOSIG
Loading
Personal Weather Stations






























Interactive Weather Map
Tropical Storm Tracking
New forecast layout! Learn more

10-Day Weather Forecast

Advertisements
Track Severe Weather on mobile